Terminal Aerodrome Forecast
Issued by NWS

Home | Current Version | Previous Version | Text Only | Print | Product List | Glossary On
Versions: 1 2 3 4 5 6 7 8 9 10 11 12 13 14 15 16 17 18
000
FTUS46 KOTX 261200 CCA
TAFCOE
TAF COR
KCOE 261200Z 2612/2712 15005KT P6SM -RA BKN015 OVC020
     FM261400 17007KT P6SM -SHRA OVC018
     FM261600 20007KT P6SM BKN025
     FM261900 21009KT P6SM VCSH BKN040 BKN060
     FM262200 21010G17KT P6SM -SHRA BKN040 BKN070
     FM270600 20010KT P6SM FEW020 BKN060=

USA.gov is the U.S. government's official web portal to all federal, state and local government web resources and services.